sensor_id;sensor_type;location;lat;lon;timestamp;temperature;humidity
14397;DHT22;50653;47.810;13.022;2022-10-19T00:00:48;17.10;99.90
14397;DHT22;50653;47.810;13.022;2022-10-19T00:03:15;17.10;99.90
14397;DHT22;50653;47.810;13.022;2022-10-19T00:05:41;17.10;99.90
14397;DHT22;50653;47.810;13.022;2022-10-19T00:08:07;17.20;99.90
14397;DHT22;50653;47.810;13.022;2022-10-19T00:10:32;17.20;99.90
14397;DHT22;50653;47.810;13.022;2022-10-19T00:12:58;17.10;99.90
14397;DHT22;50653;47.810;13.022;2022-10-19T00:15:24;17.00;99.90
14397;DHT22;50653;47.810;13.022;2022-10-19T00:17:50;17.10;99.90
14397;DHT22;50653;47.810;13.022;2022-10-19T00:20:15;17.10;99.90
14397;DHT22;50653;47.810;13.022;2022-10-19T00:22:41;17.20;99.90
14397;DHT22;50653;47.810;13.022;2022-10-19T00:25:07;17.10;99.90
14397;DHT22;50653;47.810;13.022;2022-10-19T00:27:33;17.20;99.90
14397;DHT22;50653;47.810;13.022;2022-10-19T00:30:00;17.10;99.90
14397;DHT22;50653;47.810;13.022;2022-10-19T00:32:25;17.20;99.90
14397;DHT22;50653;47.810;13.022;2022-10-19T00:34:51;17.10;99.90
14397;DHT22;50653;47.810;13.022;2022-10-19T00:37:17;17.10;99.90
14397;DHT22;50653;47.810;13.022;2022-10-19T00:39:42;17.20;99.90
14397;DHT22;50653;47.810;13.022;2022-10-19T00:42:11;17.20;99.90
14397;DHT22;50653;47.810;13.022;2022-10-19T00:47:04;17.10;99.90
14397;DHT22;50653;47.810;13.022;2022-10-19T00:49:38;16.90;99.90
14397;DHT22;50653;47.810;13.022;2022-10-19T00:52:08;16.80;99.90
14397;DHT22;50653;47.810;13.022;2022-10-19T00:54:37;16.80;99.90
14397;DHT22;50653;47.810;13.022;2022-10-19T00:57:04;16.60;99.90
14397;DHT22;50653;47.810;13.022;2022-10-19T00:59:31;16.60;99.90
14397;DHT22;50653;47.810;13.022;2022-10-19T01:01:57;16.60;99.90
14397;DHT22;50653;47.810;13.022;2022-10-19T01:04:25;16.60;99.90
14397;DHT22;50653;47.810;13.022;2022-10-19T01:06:52;16.60;99.90
14397;DHT22;50653;47.810;13.022;2022-10-19T01:09:17;16.60;99.90
14397;DHT22;50653;47.810;13.022;2022-10-19T01:11:57;16.60;99.90
14397;DHT22;50653;47.810;13.022;2022-10-19T01:26:15;16.40;99.90
14397;DHT22;50653;47.810;13.022;2022-10-19T01:42:30;16.60;99.90
14397;DHT22;50653;47.810;13.022;2022-10-19T01:48:02;16.80;99.90
14397;DHT22;50653;47.810;13.022;2022-10-19T01:50:40;16.70;99.90
14397;DHT22;50653;47.810;13.022;2022-10-19T01:53:08;16.60;99.90
14397;DHT22;50653;47.810;13.022;2022-10-19T01:55:38;16.70;99.90
14397;DHT22;50653;47.810;13.022;2022-10-19T01:58:06;16.80;99.90
14397;DHT22;50653;47.810;13.022;2022-10-19T02:00:35;16.80;99.90
14397;DHT22;50653;47.810;13.022;2022-10-19T02:03:03;16.80;99.90
14397;DHT22;50653;47.810;13.022;2022-10-19T02:05:31;16.90;99.90
14397;DHT22;50653;47.810;13.022;2022-10-19T02:08:01;16.90;99.90
14397;DHT22;50653;47.810;13.022;2022-10-19T02:10:28;16.90;99.90
14397;DHT22;50653;47.810;13.022;2022-10-19T02:12:56;16.80;99.90
14397;DHT22;50653;47.810;13.022;2022-10-19T02:15:24;16.80;99.90
14397;DHT22;50653;47.810;13.022;2022-10-19T02:17:53;16.70;99.90
14397;DHT22;50653;47.810;13.022;2022-10-19T02:20:21;16.60;99.90
14397;DHT22;50653;47.810;13.022;2022-10-19T02:22:47;16.70;99.90
14397;DHT22;50653;47.810;13.022;2022-10-19T02:25:13;16.70;99.90
14397;DHT22;50653;47.810;13.022;2022-10-19T02:27:40;16.80;99.90
14397;DHT22;50653;47.810;13.022;2022-10-19T02:30:08;16.80;99.90
14397;DHT22;50653;47.810;13.022;2022-10-19T02:32:34;16.70;99.90
14397;DHT22;50653;47.810;13.022;2022-10-19T02:35:00;16.60;99.90
14397;DHT22;50653;47.810;13.022;2022-10-19T02:37:26;16.60;99.90
14397;DHT22;50653;47.810;13.022;2022-10-19T02:39:52;16.60;99.90
14397;DHT22;50653;47.810;13.022;2022-10-19T02:42:23;16.60;99.90
14397;DHT22;50653;47.810;13.022;2022-10-19T02:47:38;16.40;99.90
14397;DHT22;50653;47.810;13.022;2022-10-19T02:50:08;16.50;99.90
14397;DHT22;50653;47.810;13.022;2022-10-19T02:52:39;16.50;99.90
14397;DHT22;50653;47.810;13.022;2022-10-19T02:55:06;16.50;99.90
14397;DHT22;50653;47.810;13.022;2022-10-19T02:57:32;16.60;99.90
14397;DHT22;50653;47.810;13.022;2022-10-19T02:59:58;16.50;99.90
14397;DHT22;50653;47.810;13.022;2022-10-19T03:02:24;16.60;99.90
14397;DHT22;50653;47.810;13.022;2022-10-19T03:04:49;16.60;99.90
14397;DHT22;50653;47.810;13.022;2022-10-19T03:07:17;16.40;99.90
14397;DHT22;50653;47.810;13.022;2022-10-19T03:09:43;16.50;99.90
14397;DHT22;50653;47.810;13.022;2022-10-19T03:12:11;16.60;99.90
14397;DHT22;50653;47.810;13.022;2022-10-19T03:14:37;16.50;99.90
14397;DHT22;50653;47.810;13.022;2022-10-19T03:17:02;16.50;99.90
14397;DHT22;50653;47.810;13.022;2022-10-19T03:19:29;16.50;99.90
14397;DHT22;50653;47.810;13.022;2022-10-19T03:21:54;16.60;99.90
14397;DHT22;50653;47.810;13.022;2022-10-19T03:24:20;16.60;99.90
14397;DHT22;50653;47.810;13.022;2022-10-19T03:26:45;16.60;99.90
14397;DHT22;50653;47.810;13.022;2022-10-19T03:29:11;16.60;99.90
14397;DHT22;50653;47.810;13.022;2022-10-19T03:31:37;16.60;99.90
14397;DHT22;50653;47.810;13.022;2022-10-19T03:34:02;16.70;99.90
14397;DHT22;50653;47.810;13.022;2022-10-19T03:36:30;16.60;99.90
14397;DHT22;50653;47.810;13.022;2022-10-19T03:38:58;16.70;99.90
14397;DHT22;50653;47.810;13.022;2022-10-19T03:41:28;16.60;99.90
14397;DHT22;50653;47.810;13.022;2022-10-19T03:43:55;16.50;99.90
14397;DHT22;50653;47.810;13.022;2022-10-19T03:46:21;16.60;99.90
14397;DHT22;50653;47.810;13.022;2022-10-19T03:48:47;16.70;99.90
14397;DHT22;50653;47.810;13.022;2022-10-19T03:51:15;16.70;99.90
14397;DHT22;50653;47.810;13.022;2022-10-19T03:53:41;16.70;99.90
14397;DHT22;50653;47.810;13.022;2022-10-19T03:56:11;16.80;99.90
14397;DHT22;50653;47.810;13.022;2022-10-19T03:58:38;16.90;99.90
14397;DHT22;50653;47.810;13.022;2022-10-19T04:01:09;16.50;99.90
14397;DHT22;50653;47.810;13.022;2022-10-19T04:03:36;16.40;99.90
14397;DHT22;50653;47.810;13.022;2022-10-19T04:06:09;16.50;99.90
14397;DHT22;50653;47.810;13.022;2022-10-19T04:08:35;16.40;99.90
14397;DHT22;50653;47.810;13.022;2022-10-19T04:11:03;16.50;99.90
14397;DHT22;50653;47.810;13.022;2022-10-19T04:13:29;16.60;99.90
14397;DHT22;50653;47.810;13.022;2022-10-19T04:15:55;16.60;99.90
14397;DHT22;50653;47.810;13.022;2022-10-19T04:18:21;16.60;99.90
14397;DHT22;50653;47.810;13.022;2022-10-19T04:20:47;16.70;99.90
14397;DHT22;50653;47.810;13.022;2022-10-19T04:23:12;16.60;99.90
14397;DHT22;50653;47.810;13.022;2022-10-19T04:25:38;16.70;99.90
14397;DHT22;50653;47.810;13.022;2022-10-19T04:28:04;16.70;99.90
14397;DHT22;50653;47.810;13.022;2022-10-19T04:30:29;16.60;99.90
14397;DHT22;50653;47.810;13.022;2022-10-19T04:32:55;16.50;99.90
14397;DHT22;50653;47.810;13.022;2022-10-19T04:35:20;16.50;99.90
14397;DHT22;50653;47.810;13.022;2022-10-19T04:37:46;16.60;99.90
14397;DHT22;50653;47.810;13.022;2022-10-19T04:40:12;16.60;99.90
14397;DHT22;50653;47.810;13.022;2022-10-19T04:42:37;16.70;99.90
14397;DHT22;50653;47.810;13.022;2022-10-19T04:45:03;16.70;99.90
14397;DHT22;50653;47.810;13.022;2022-10-19T04:47:29;16.70;99.90
14397;DHT22;50653;47.810;13.022;2022-10-19T04:49:55;16.70;99.90
14397;DHT22;50653;47.810;13.022;2022-10-19T04:52:20;16.70;99.90
14397;DHT22;50653;47.810;13.022;2022-10-19T04:54:46;16.50;99.90
14397;DHT22;50653;47.810;13.022;2022-10-19T04:57:11;16.50;99.90
14397;DHT22;50653;47.810;13.022;2022-10-19T04:59:37;16.40;99.90
14397;DHT22;50653;47.810;13.022;2022-10-19T05:02:03;16.40;99.90
14397;DHT22;50653;47.810;13.022;2022-10-19T05:04:28;16.40;99.90
14397;DHT22;50653;47.810;13.022;2022-10-19T05:06:54;16.30;99.90
14397;DHT22;50653;47.810;13.022;2022-10-19T05:09:20;16.40;99.90
14397;DHT22;50653;47.810;13.022;2022-10-19T05:11:48;16.50;99.90
14397;DHT22;50653;47.810;13.022;2022-10-19T05:14:14;16.50;99.90
14397;DHT22;50653;47.810;13.022;2022-10-19T05:16:39;16.40;99.90
14397;DHT22;50653;47.810;13.022;2022-10-19T05:19:05;16.40;99.90
14397;DHT22;50653;47.810;13.022;2022-10-19T05:21:30;16.30;99.90
14397;DHT22;50653;47.810;13.022;2022-10-19T05:23:56;16.30;99.90
14397;DHT22;50653;47.810;13.022;2022-10-19T05:26:24;16.30;99.90
14397;DHT22;50653;47.810;13.022;2022-10-19T05:28:52;16.30;99.90
14397;DHT22;50653;47.810;13.022;2022-10-19T05:31:25;16.30;99.90
14397;DHT22;50653;47.810;13.022;2022-10-19T05:33:51;16.20;99.90
14397;DHT22;50653;47.810;13.022;2022-10-19T05:36:22;16.30;99.90
14397;DHT22;50653;47.810;13.022;2022-10-19T05:38:51;16.30;99.90
14397;DHT22;50653;47.810;13.022;2022-10-19T05:41:18;16.30;99.90
14397;DHT22;50653;47.810;13.022;2022-10-19T05:43:44;16.30;99.90
14397;DHT22;50653;47.810;13.022;2022-10-19T05:46:12;16.40;99.90
14397;DHT22;50653;47.810;13.022;2022-10-19T05:48:39;16.30;99.90
14397;DHT22;50653;47.810;13.022;2022-10-19T05:51:06;16.30;99.90
14397;DHT22;50653;47.810;13.022;2022-10-19T05:53:33;16.30;99.90
14397;DHT22;50653;47.810;13.022;2022-10-19T05:55:59;16.40;99.90
14397;DHT22;50653;47.810;13.022;2022-10-19T05:58:24;16.30;99.90
14397;DHT22;50653;47.810;13.022;2022-10-19T06:00:57;16.30;99.90
14397;DHT22;50653;47.810;13.022;2022-10-19T06:03:24;16.30;99.90
14397;DHT22;50653;47.810;13.022;2022-10-19T06:05:50;16.20;99.90
14397;DHT22;50653;47.810;13.022;2022-10-19T06:08:17;16.20;99.90
14397;DHT22;50653;47.810;13.022;2022-10-19T06:10:43;16.20;99.90
14397;DHT22;50653;47.810;13.022;2022-10-19T06:13:09;16.20;99.90
14397;DHT22;50653;47.810;13.022;2022-10-19T06:15:35;16.20;99.90
14397;DHT22;50653;47.810;13.022;2022-10-19T06:18:11;16.20;99.90
14397;DHT22;50653;47.810;13.022;2022-10-19T06:20:39;16.20;99.90
14397;DHT22;50653;47.810;13.022;2022-10-19T06:23:05;16.30;99.90
14397;DHT22;50653;47.810;13.022;2022-10-19T06:25:32;16.30;99.90
14397;DHT22;50653;47.810;13.022;2022-10-19T06:27:58;16.30;99.90
14397;DHT22;50653;47.810;13.022;2022-10-19T06:30:24;16.20;99.90
14397;DHT22;50653;47.810;13.022;2022-10-19T06:32:50;16.20;99.90
14397;DHT22;50653;47.810;13.022;2022-10-19T06:35:16;16.40;99.90
14397;DHT22;50653;47.810;13.022;2022-10-19T06:37:42;16.40;99.90
14397;DHT22;50653;47.810;13.022;2022-10-19T06:40:08;16.50;99.90
14397;DHT22;50653;47.810;13.022;2022-10-19T06:42:34;16.70;99.90
14397;DHT22;50653;47.810;13.022;2022-10-19T06:45:07;16.70;99.90
14397;DHT22;50653;47.810;13.022;2022-10-19T06:47:34;16.60;99.90
14397;DHT22;50653;47.810;13.022;2022-10-19T06:50:00;16.60;99.90
14397;DHT22;50653;47.810;13.022;2022-10-19T06:52:26;16.50;99.90
14397;DHT22;50653;47.810;13.022;2022-10-19T06:54:52;16.50;99.90
14397;DHT22;50653;47.810;13.022;2022-10-19T06:57:17;16.50;99.90
14397;DHT22;50653;47.810;13.022;2022-10-19T06:59:43;16.50;99.90
14397;DHT22;50653;47.810;13.022;2022-10-19T07:02:10;16.50;99.90
14397;DHT22;50653;47.810;13.022;2022-10-19T07:04:36;16.60;99.90
14397;DHT22;50653;47.810;13.022;2022-10-19T07:07:01;16.60;99.90
14397;DHT22;50653;47.810;13.022;2022-10-19T07:09:27;16.60;99.90
14397;DHT22;50653;47.810;13.022;2022-10-19T07:11:53;16.50;99.90
14397;DHT22;50653;47.810;13.022;2022-10-19T07:14:18;16.60;99.90
14397;DHT22;50653;47.810;13.022;2022-10-19T07:16:44;16.60;99.90
14397;DHT22;50653;47.810;13.022;2022-10-19T07:19:10;16.70;99.90
14397;DHT22;50653;47.810;13.022;2022-10-19T07:21:37;16.70;99.90
14397;DHT22;50653;47.810;13.022;2022-10-19T07:24:06;16.70;99.90
14397;DHT22;50653;47.810;13.022;2022-10-19T07:26:32;16.80;99.90
14397;DHT22;50653;47.810;13.022;2022-10-19T07:28:58;16.90;99.90
14397;DHT22;50653;47.810;13.022;2022-10-19T07:31:26;16.90;99.90
14397;DHT22;50653;47.810;13.022;2022-10-19T07:33:57;16.80;99.90
14397;DHT22;50653;47.810;13.022;2022-10-19T07:36:24;16.80;99.90
14397;DHT22;50653;47.810;13.022;2022-10-19T07:38:50;16.80;99.90
14397;DHT22;50653;47.810;13.022;2022-10-19T07:41:18;16.90;99.90
14397;DHT22;50653;47.810;13.022;2022-10-19T07:43:45;16.80;99.90
14397;DHT22;50653;47.810;13.022;2022-10-19T07:46:17;16.80;99.90
14397;DHT22;50653;47.810;13.022;2022-10-19T07:48:44;16.80;99.90
14397;DHT22;50653;47.810;13.022;2022-10-19T07:51:11;16.80;99.90
14397;DHT22;50653;47.810;13.022;2022-10-19T07:53:37;16.80;99.90
14397;DHT22;50653;47.810;13.022;2022-10-19T07:56:26;16.90;99.90
14397;DHT22;50653;47.810;13.022;2022-10-19T07:58:54;16.80;99.90
14397;DHT22;50653;47.810;13.022;2022-10-19T08:01:23;16.90;99.90
14397;DHT22;50653;47.810;13.022;2022-10-19T08:03:52;16.90;99.90
14397;DHT22;50653;47.810;13.022;2022-10-19T08:06:18;16.80;99.90
14397;DHT22;50653;47.810;13.022;2022-10-19T08:08:46;16.80;99.90
14397;DHT22;50653;47.810;13.022;2022-10-19T08:11:26;16.80;99.90
14397;DHT22;50653;47.810;13.022;2022-10-19T08:13:53;16.80;99.90
14397;DHT22;50653;47.810;13.022;2022-10-19T08:16:33;16.90;99.90
14397;DHT22;50653;47.810;13.022;2022-10-19T08:19:03;16.90;99.90
14397;DHT22;50653;47.810;13.022;2022-10-19T08:21:31;16.90;99.90
14397;DHT22;50653;47.810;13.022;2022-10-19T08:23:57;16.90;99.90
14397;DHT22;50653;47.810;13.022;2022-10-19T08:26:26;16.90;99.90
14397;DHT22;50653;47.810;13.022;2022-10-19T08:28:52;16.90;99.90
14397;DHT22;50653;47.810;13.022;2022-10-19T08:31:20;17.00;99.90
14397;DHT22;50653;47.810;13.022;2022-10-19T08:33:49;16.90;99.90
14397;DHT22;50653;47.810;13.022;2022-10-19T08:36:14;17.00;99.90
14397;DHT22;50653;47.810;13.022;2022-10-19T08:38:40;16.80;99.90
14397;DHT22;50653;47.810;13.022;2022-10-19T08:44:13;16.90;99.90
14397;DHT22;50653;47.810;13.022;2022-10-19T08:46:53;16.90;99.90
14397;DHT22;50653;47.810;13.022;2022-10-19T08:49:24;17.00;99.90
14397;DHT22;50653;47.810;13.022;2022-10-19T08:51:56;17.00;99.90
14397;DHT22;50653;47.810;13.022;2022-10-19T08:54:24;17.00;99.90
14397;DHT22;50653;47.810;13.022;2022-10-19T08:59:53;16.90;99.90
14397;DHT22;50653;47.810;13.022;2022-10-19T09:02:44;16.90;99.90
14397;DHT22;50653;47.810;13.022;2022-10-19T09:05:36;17.00;99.90
14397;DHT22;50653;47.810;13.022;2022-10-19T09:08:03;16.90;99.90
14397;DHT22;50653;47.810;13.022;2022-10-19T09:10:34;16.80;99.90
14397;DHT22;50653;47.810;13.022;2022-10-19T09:13:12;17.00;99.90
14397;DHT22;50653;47.810;13.022;2022-10-19T09:15:43;17.00;99.90
14397;DHT22;50653;47.810;13.022;2022-10-19T09:18:31;17.10;99.90
14397;DHT22;50653;47.810;13.022;2022-10-19T09:21:17;17.10;99.90
14397;DHT22;50653;47.810;13.022;2022-10-19T09:24:26;17.20;99.90
14397;DHT22;50653;47.810;13.022;2022-10-19T09:26:55;17.20;99.90
14397;DHT22;50653;47.810;13.022;2022-10-19T09:29:43;17.20;99.90
14397;DHT22;50653;47.810;13.022;2022-10-19T09:32:13;17.00;99.90
14397;DHT22;50653;47.810;13.022;2022-10-19T09:34:53;17.10;99.90
14397;DHT22;50653;47.810;13.022;2022-10-19T09:37:20;17.10;99.90
14397;DHT22;50653;47.810;13.022;2022-10-19T09:39:46;17.00;99.90
14397;DHT22;50653;47.810;13.022;2022-10-19T09:44:51;17.10;99.90
14397;DHT22;50653;47.810;13.022;2022-10-19T09:47:39;17.10;99.90
14397;DHT22;50653;47.810;13.022;2022-10-19T09:50:22;17.10;99.90
14397;DHT22;50653;47.810;13.022;2022-10-19T09:52:59;17.20;99.90
14397;DHT22;50653;47.810;13.022;2022-10-19T09:55:43;17.20;99.90
14397;DHT22;50653;47.810;13.022;2022-10-19T10:03:06;17.10;99.90
14397;DHT22;50653;47.810;13.022;2022-10-19T10:05:37;17.10;99.90
14397;DHT22;50653;47.810;13.022;2022-10-19T10:08:11;17.10;99.90
14397;DHT22;50653;47.810;13.022;2022-10-19T10:10:41;17.00;99.90
14397;DHT22;50653;47.810;13.022;2022-10-19T10:13:20;17.00;99.90
14397;DHT22;50653;47.810;13.022;2022-10-19T10:15:59;17.10;99.90
14397;DHT22;50653;47.810;13.022;2022-10-19T10:18:27;17.10;99.90
14397;DHT22;50653;47.810;13.022;2022-10-19T10:23:25;17.30;99.90
14397;DHT22;50653;47.810;13.022;2022-10-19T10:25:55;17.20;99.90
14397;DHT22;50653;47.810;13.022;2022-10-19T10:28:23;17.30;99.90
14397;DHT22;50653;47.810;13.022;2022-10-19T10:33:26;17.10;99.90
14397;DHT22;50653;47.810;13.022;2022-10-19T10:35:55;17.20;99.90
14397;DHT22;50653;47.810;13.022;2022-10-19T10:38:34;17.20;99.90
14397;DHT22;50653;47.810;13.022;2022-10-19T10:41:11;17.20;99.90
14397;DHT22;50653;47.810;13.022;2022-10-19T10:43:53;17.20;99.90
14397;DHT22;50653;47.810;13.022;2022-10-19T10:46:26;17.20;99.90
14397;DHT22;50653;47.810;13.022;2022-10-19T10:48:56;17.20;99.90
14397;DHT22;50653;47.810;13.022;2022-10-19T10:51:39;17.20;99.90
14397;DHT22;50653;47.810;13.022;2022-10-19T10:54:34;17.30;99.90
14397;DHT22;50653;47.810;13.022;2022-10-19T10:57:12;17.20;99.90
14397;DHT22;50653;47.810;13.022;2022-10-19T11:02:37;17.40;99.90
14397;DHT22;50653;47.810;13.022;2022-10-19T11:07:40;17.40;99.90
14397;DHT22;50653;47.810;13.022;2022-10-19T11:10:19;17.30;99.90
14397;DHT22;50653;47.810;13.022;2022-10-19T11:12:50;17.30;99.90
14397;DHT22;50653;47.810;13.022;2022-10-19T11:15:23;17.30;99.90
14397;DHT22;50653;47.810;13.022;2022-10-19T11:17:58;17.30;99.90
14397;DHT22;50653;47.810;13.022;2022-10-19T11:20:29;17.30;99.90
14397;DHT22;50653;47.810;13.022;2022-10-19T11:23:18;17.30;99.90
14397;DHT22;50653;47.810;13.022;2022-10-19T11:28:32;17.30;99.90
14397;DHT22;50653;47.810;13.022;2022-10-19T11:36:49;17.30;99.90
14397;DHT22;50653;47.810;13.022;2022-10-19T11:50:24;17.20;99.90
14397;DHT22;50653;47.810;13.022;2022-10-19T11:52:55;17.20;99.90
14397;DHT22;50653;47.810;13.022;2022-10-19T12:01:07;17.30;99.90
14397;DHT22;50653;47.810;13.022;2022-10-19T12:06:43;17.40;99.90
14397;DHT22;50653;47.810;13.022;2022-10-19T12:09:41;17.40;99.90
14397;DHT22;50653;47.810;13.022;2022-10-19T12:12:30;17.30;99.90
14397;DHT22;50653;47.810;13.022;2022-10-19T12:17:38;17.30;99.90
14397;DHT22;50653;47.810;13.022;2022-10-19T12:20:12;17.40;99.90
14397;DHT22;50653;47.810;13.022;2022-10-19T12:22:40;17.40;99.90
14397;DHT22;50653;47.810;13.022;2022-10-19T12:25:12;17.40;99.90
14397;DHT22;50653;47.810;13.022;2022-10-19T12:27:39;17.40;99.90
14397;DHT22;50653;47.810;13.022;2022-10-19T12:30:12;17.50;99.90
14397;DHT22;50653;47.810;13.022;2022-10-19T12:33:11;17.40;99.90
14397;DHT22;50653;47.810;13.022;2022-10-19T12:35:52;17.50;99.90
14397;DHT22;50653;47.810;13.022;2022-10-19T12:41:15;17.50;99.90
14397;DHT22;50653;47.810;13.022;2022-10-19T12:44:05;17.40;99.90
14397;DHT22;50653;47.810;13.022;2022-10-19T12:46:49;17.50;99.90
14397;DHT22;50653;47.810;13.022;2022-10-19T12:51:58;17.50;99.90
14397;DHT22;50653;47.810;13.022;2022-10-19T12:54:35;17.50;99.90
14397;DHT22;50653;47.810;13.022;2022-10-19T12:57:03;17.60;99.90
14397;DHT22;50653;47.810;13.022;2022-10-19T12:59:34;17.60;99.90
14397;DHT22;50653;47.810;13.022;2022-10-19T13:02:03;17.60;99.90
14397;DHT22;50653;47.810;13.022;2022-10-19T13:04:32;17.70;99.90
14397;DHT22;50653;47.810;13.022;2022-10-19T13:07:02;17.60;99.90
14397;DHT22;50653;47.810;13.022;2022-10-19T13:09:40;17.70;99.90
14397;DHT22;50653;47.810;13.022;2022-10-19T13:14:43;17.70;99.90
14397;DHT22;50653;47.810;13.022;2022-10-19T13:17:09;17.80;99.90
14397;DHT22;50653;47.810;13.022;2022-10-19T13:19:35;17.70;99.90
14397;DHT22;50653;47.810;13.022;2022-10-19T13:24:30;17.70;99.90
14397;DHT22;50653;47.810;13.022;2022-10-19T13:32:40;17.70;99.90
14397;DHT22;50653;47.810;13.022;2022-10-19T13:35:31;17.80;99.90
14397;DHT22;50653;47.810;13.022;2022-10-19T13:38:19;17.80;99.90
14397;DHT22;50653;47.810;13.022;2022-10-19T13:43:24;17.80;99.90
14397;DHT22;50653;47.810;13.022;2022-10-19T14:11:51;18.10;99.90
14397;DHT22;50653;47.810;13.022;2022-10-19T14:14:22;18.10;99.90
14397;DHT22;50653;47.810;13.022;2022-10-19T14:16:52;18.20;99.90
14397;DHT22;50653;47.810;13.022;2022-10-19T14:19:42;18.20;99.90
14397;DHT22;50653;47.810;13.022;2022-10-19T14:22:26;18.30;99.90
14397;DHT22;50653;47.810;13.022;2022-10-19T14:25:18;18.30;99.90
14397;DHT22;50653;47.810;13.022;2022-10-19T14:27:51;18.40;99.90
14397;DHT22;50653;47.810;13.022;2022-10-19T14:30:23;18.40;99.90
14397;DHT22;50653;47.810;13.022;2022-10-19T14:32:49;18.40;99.90
14397;DHT22;50653;47.810;13.022;2022-10-19T14:37:54;18.50;99.90
14397;DHT22;50653;47.810;13.022;2022-10-19T14:42:46;18.50;99.90
14397;DHT22;50653;47.810;13.022;2022-10-19T14:45:23;18.50;99.90
14397;DHT22;50653;47.810;13.022;2022-10-19T14:47:59;18.50;99.90
14397;DHT22;50653;47.810;13.022;2022-10-19T14:50:33;18.40;99.90
14397;DHT22;50653;47.810;13.022;2022-10-19T14:53:38;18.40;99.90
14397;DHT22;50653;47.810;13.022;2022-10-19T14:56:28;18.40;99.90
14397;DHT22;50653;47.810;13.022;2022-10-19T14:59:22;18.30;99.90
14397;DHT22;50653;47.810;13.022;2022-10-19T15:01:50;18.40;99.90
14397;DHT22;50653;47.810;13.022;2022-10-19T15:04:25;18.40;99.90
14397;DHT22;50653;47.810;13.022;2022-10-19T15:06:52;18.40;99.90
14397;DHT22;50653;47.810;13.022;2022-10-19T15:09:34;18.30;99.90
14397;DHT22;50653;47.810;13.022;2022-10-19T15:12:08;18.30;99.90
14397;DHT22;50653;47.810;13.022;2022-10-19T15:14:36;18.20;99.90
14397;DHT22;50653;47.810;13.022;2022-10-19T15:17:04;18.20;99.90
14397;DHT22;50653;47.810;13.022;2022-10-19T15:22:17;18.20;99.90
14397;DHT22;50653;47.810;13.022;2022-10-19T15:27:32;18.20;99.90
14397;DHT22;50653;47.810;13.022;2022-10-19T15:30:05;18.20;99.90
14397;DHT22;50653;47.810;13.022;2022-10-19T15:32:34;18.20;99.90
14397;DHT22;50653;47.810;13.022;2022-10-19T15:35:24;18.10;99.90
14397;DHT22;50653;47.810;13.022;2022-10-19T15:38:03;18.20;99.90
14397;DHT22;50653;47.810;13.022;2022-10-19T15:40:33;18.10;99.90
14397;DHT22;50653;47.810;13.022;2022-10-19T15:43:00;18.10;99.90
14397;DHT22;50653;47.810;13.022;2022-10-19T15:45:37;18.00;99.90
14397;DHT22;50653;47.810;13.022;2022-10-19T15:50:54;17.90;99.90
14397;DHT22;50653;47.810;13.022;2022-10-19T15:53:20;17.70;99.90
14397;DHT22;50653;47.810;13.022;2022-10-19T15:55:47;17.60;99.90
14397;DHT22;50653;47.810;13.022;2022-10-19T15:58:13;17.60;99.90
14397;DHT22;50653;47.810;13.022;2022-10-19T16:00:40;17.50;99.90
14397;DHT22;50653;47.810;13.022;2022-10-19T16:03:06;17.50;99.90
14397;DHT22;50653;47.810;13.022;2022-10-19T16:05:34;17.50;99.90
14397;DHT22;50653;47.810;13.022;2022-10-19T16:07:59;17.50;99.90
14397;DHT22;50653;47.810;13.022;2022-10-19T16:10:26;17.60;99.90
14397;DHT22;50653;47.810;13.022;2022-10-19T16:12:52;17.40;99.90
14397;DHT22;50653;47.810;13.022;2022-10-19T16:15:20;17.30;99.90
14397;DHT22;50653;47.810;13.022;2022-10-19T16:17:52;17.30;99.90
14397;DHT22;50653;47.810;13.022;2022-10-19T16:20:19;17.30;99.90
14397;DHT22;50653;47.810;13.022;2022-10-19T16:22:46;17.30;99.90
14397;DHT22;50653;47.810;13.022;2022-10-19T16:25:12;17.30;99.90
14397;DHT22;50653;47.810;13.022;2022-10-19T16:27:38;17.20;99.90
14397;DHT22;50653;47.810;13.022;2022-10-19T16:30:05;17.20;99.90
14397;DHT22;50653;47.810;13.022;2022-10-19T16:32:31;17.30;99.90
14397;DHT22;50653;47.810;13.022;2022-10-19T16:34:56;17.30;99.90
14397;DHT22;50653;47.810;13.022;2022-10-19T16:37:22;17.20;99.90
14397;DHT22;50653;47.810;13.022;2022-10-19T16:39:47;17.10;99.90
14397;DHT22;50653;47.810;13.022;2022-10-19T16:42:13;17.10;99.90
14397;DHT22;50653;47.810;13.022;2022-10-19T16:44:40;17.10;99.90
14397;DHT22;50653;47.810;13.022;2022-10-19T16:47:06;17.00;99.90
14397;DHT22;50653;47.810;13.022;2022-10-19T16:49:32;16.90;99.90
14397;DHT22;50653;47.810;13.022;2022-10-19T16:51:57;16.90;99.90
14397;DHT22;50653;47.810;13.022;2022-10-19T16:54:25;16.90;99.90
14397;DHT22;50653;47.810;13.022;2022-10-19T16:56:51;17.00;99.90
14397;DHT22;50653;47.810;13.022;2022-10-19T16:59:18;17.00;99.90
14397;DHT22;50653;47.810;13.022;2022-10-19T17:01:44;17.00;99.90
14397;DHT22;50653;47.810;13.022;2022-10-19T17:04:11;17.00;99.90
14397;DHT22;50653;47.810;13.022;2022-10-19T17:06:37;17.10;99.90
14397;DHT22;50653;47.810;13.022;2022-10-19T17:09:03;17.20;99.90
14397;DHT22;50653;47.810;13.022;2022-10-19T17:11:31;17.10;99.90
14397;DHT22;50653;47.810;13.022;2022-10-19T17:14:00;17.10;99.90
14397;DHT22;50653;47.810;13.022;2022-10-19T17:16:27;16.90;99.90
14397;DHT22;50653;47.810;13.022;2022-10-19T17:18:55;16.90;99.90
14397;DHT22;50653;47.810;13.022;2022-10-19T17:21:24;16.90;99.90
14397;DHT22;50653;47.810;13.022;2022-10-19T17:23:51;16.80;99.90
14397;DHT22;50653;47.810;13.022;2022-10-19T17:26:17;16.70;99.90
14397;DHT22;50653;47.810;13.022;2022-10-19T17:28:43;16.70;99.90
14397;DHT22;50653;47.810;13.022;2022-10-19T17:31:13;16.80;99.90
14397;DHT22;50653;47.810;13.022;2022-10-19T17:33:39;16.80;99.90
14397;DHT22;50653;47.810;13.022;2022-10-19T17:36:12;16.70;99.90
14397;DHT22;50653;47.810;13.022;2022-10-19T17:38:38;16.60;99.90
14397;DHT22;50653;47.810;13.022;2022-10-19T17:41:10;16.60;99.90
14397;DHT22;50653;47.810;13.022;2022-10-19T17:43:38;16.50;99.90
14397;DHT22;50653;47.810;13.022;2022-10-19T17:46:06;16.50;99.90
14397;DHT22;50653;47.810;13.022;2022-10-19T17:48:32;16.50;99.90
14397;DHT22;50653;47.810;13.022;2022-10-19T17:51:07;16.50;99.90
14397;DHT22;50653;47.810;13.022;2022-10-19T17:53:33;16.50;99.90
14397;DHT22;50653;47.810;13.022;2022-10-19T17:56:00;16.50;99.90
14397;DHT22;50653;47.810;13.022;2022-10-19T17:58:27;16.60;99.90